Time;durP1;ratioP1;P1;durP2;ratioP2;P2;SDS_P1;SDS_P2;PMS_P1;PMS_P2;Temp;Humidity;BMP_temperature;BMP_pressure;BME280_temperature;BME280_humidity;BME280_pressure;Samples;Min_cycle;Max_cycle;Signal;HPM_P1;HPM_P2
2022/03/17 00:02:05;;;;;;;2.03;1.92;;;;;;;;;;5049503;28;20032;-81
2022/03/17 00:04:31;;;;;;;2.10;2.00;;;;;;;;;;5054884;28;20462;-82
2022/03/17 00:06:57;;;;;;;2.53;1.67;;;;;;;;;;5053252;28;20057;-82
2022/03/17 00:09:22;;;;;;;1.30;1.25;;;;;;;;;;5038977;28;20334;-83
2022/03/17 00:11:48;;;;;;;3.72;2.05;;;;;;;;;;5054346;28;20519;-83
2022/03/17 00:14:13;;;;;;;2.10;1.92;;;;;;;;;;5050724;28;20036;-82
2022/03/17 00:16:41;;;;;;;2.25;1.83;;;;;;;;;;5053079;28;20040;-83
2022/03/17 00:19:09;;;;;;;6.68;1.13;;;;;;;;;;5057744;28;20024;-82
2022/03/17 00:21:36;;;;;;;3.70;2.88;;;;;;;;;;5036825;28;20021;-82
2022/03/17 00:24:02;;;;;;;2.47;1.77;;;;;;;;;;5056484;28;20017;-82
2022/03/17 00:26:27;;;;;;;5.80;3.88;;;;;;;;;;5055607;28;20029;-83
2022/03/17 00:28:52;;;;;;;3.17;2.00;;;;;;;;;;5054268;28;20025;-82
2022/03/17 00:31:18;;;;;;;3.47;1.77;;;;;;;;;;5034613;28;20029;-82
2022/03/17 00:33:52;;;;;;;0.90;0.90;;;;;;;;;;5045914;28;20026;-82
2022/03/17 00:36:19;;;;;;;1.75;1.65;;;;;;;;;;5038895;28;20029;-82
2022/03/17 00:38:45;;;;;;;2.95;2.42;;;;;;;;;;5053664;28;20041;-83
2022/03/17 00:41:11;;;;;;;2.22;1.85;;;;;;;;;;5054751;28;20024;-83
2022/03/17 00:43:38;;;;;;;2.47;2.13;;;;;;;;;;5053172;28;20035;-83
2022/03/17 00:46:04;;;;;;;2.50;2.30;;;;;;;;;;5053359;28;20430;-82
2022/03/17 00:48:31;;;;;;;3.20;2.75;;;;;;;;;;5055016;28;20052;-81
2022/03/17 00:50:56;;;;;;;1.98;1.88;;;;;;;;;;5055048;28;20033;-83
2022/03/17 00:53:22;;;;;;;1.63;1.52;;;;;;;;;;5055343;28;20051;-82
2022/03/17 00:55:47;;;;;;;1.52;1.45;;;;;;;;;;5053799;28;20032;-83
2022/03/17 00:58:15;;;;;;;2.38;1.67;;;;;;;;;;5055236;28;20417;-83
2022/03/17 01:00:40;;;;;;;3.42;2.30;;;;;;;;;;5036760;28;20123;-82
2022/03/17 01:03:08;;;;;;;6.47;2.67;;;;;;;;;;5052165;28;20104;-83
2022/03/17 01:05:38;;;;;;;2.80;1.50;;;;;;;;;;5058401;28;20446;-82
2022/03/17 01:08:04;;;;;;;2.40;2.20;;;;;;;;;;5054655;28;20067;-82
2022/03/17 01:10:31;;;;;;;2.10;1.70;;;;;;;;;;5052947;28;20025;-82
2022/03/17 01:12:57;;;;;;;1.60;1.48;;;;;;;;;;5054686;28;20025;-82
2022/03/17 01:15:23;;;;;;;2.45;2.03;;;;;;;;;;5051228;28;20054;-82
2022/03/17 01:17:51;;;;;;;4.70;1.92;;;;;;;;;;5054710;28;20060;-82
2022/03/17 01:20:21;;;;;;;6.40;3.50;;;;;;;;;;5053358;28;20039;-81
2022/03/17 01:22:46;;;;;;;6.50;2.85;;;;;;;;;;5054113;28;20021;-82
2022/03/17 01:25:11;;;;;;;1.67;1.60;;;;;;;;;;5052069;28;20507;-81
2022/03/17 01:27:37;;;;;;;2.28;2.00;;;;;;;;;;5053808;28;20135;-82
2022/03/17 01:30:05;;;;;;;1.25;1.13;;;;;;;;;;5035120;28;20025;-81
2022/03/17 01:32:32;;;;;;;2.30;1.20;;;;;;;;;;5058342;28;20354;-81
2022/03/17 01:34:59;;;;;;;2.53;2.30;;;;;;;;;;5037886;28;20033;-83
2022/03/17 01:37:27;;;;;;;3.67;3.00;;;;;;;;;;5053774;28;20052;-82
2022/03/17 01:39:53;;;;;;;2.17;2.08;;;;;;;;;;5051765;28;20108;-81
2022/03/17 01:42:19;;;;;;;2.50;1.80;;;;;;;;;;5055224;28;20366;-82
2022/03/17 01:44:46;;;;;;;2.50;2.20;;;;;;;;;;5036611;28;20035;-81
2022/03/17 01:47:26;;;;;;;2.55;2.35;;;;;;;;;;5053455;28;20087;-82
2022/03/17 01:49:55;;;;;;;2.88;2.47;;;;;;;;;;5051567;28;20025;-82
2022/03/17 01:52:20;;;;;;;3.78;3.42;;;;;;;;;;5054019;28;20029;-82
2022/03/17 01:54:46;;;;;;;3.42;2.33;;;;;;;;;;5053305;28;20447;-80
2022/03/17 01:57:17;;;;;;;3.50;3.15;;;;;;;;;;5052995;28;20033;-83
2022/03/17 01:59:43;;;;;;;4.40;3.23;;;;;;;;;;5052072;28;20037;-81
2022/03/17 02:02:15;;;;;;;4.63;3.00;;;;;;;;;;5046818;28;20287;-81
2022/03/17 02:04:41;;;;;;;2.38;2.13;;;;;;;;;;5052892;28;20028;-82
2022/03/17 02:07:09;;;;;;;3.28;2.92;;;;;;;;;;5052841;28;20086;-82
2022/03/17 02:09:35;;;;;;;5.97;2.83;;;;;;;;;;5050812;28;20343;-83
2022/03/17 02:14:54;;;;;;;2.55;2.22;;;;;;;;;;5053484;28;20120;-82
2022/03/17 02:17:21;;;;;;;2.72;2.08;;;;;;;;;;5052599;28;20025;-82
2022/03/17 02:19:47;;;;;;;3.45;2.20;;;;;;;;;;5051274;28;20425;-81
2022/03/17 02:22:15;;;;;;;3.08;2.65;;;;;;;;;;5053922;28;20060;-81
2022/03/17 02:27:27;;;;;;;2.13;2.00;;;;;;;;;;5052584;28;20031;-82
2022/03/17 02:29:52;;;;;;;5.13;3.67;;;;;;;;;;5035138;28;20072;-80
2022/03/17 02:32:20;;;;;;;3.67;3.25;;;;;;;;;;5051191;28;20419;-80
2022/03/17 02:34:50;;;;;;;2.80;2.25;;;;;;;;;;5050488;28;20461;-81
2022/03/17 02:37:16;;;;;;;3.17;2.90;;;;;;;;;;5053750;28;20033;-81
2022/03/17 02:39:44;;;;;;;2.55;2.00;;;;;;;;;;5052321;28;20021;-81
2022/03/17 02:42:10;;;;;;;5.90;2.72;;;;;;;;;;5053138;28;20442;-82
2022/03/17 02:44:37;;;;;;;2.45;2.25;;;;;;;;;;5051815;28;20035;-81
2022/03/17 02:47:03;;;;;;;2.80;2.13;;;;;;;;;;5052558;28;20072;-80
2022/03/17 02:49:28;;;;;;;4.70;2.15;;;;;;;;;;5035639;28;20037;-81
2022/03/17 02:51:57;;;;;;;4.45;2.75;;;;;;;;;;5053202;28;20025;-80
2022/03/17 02:54:22;;;;;;;6.78;3.28;;;;;;;;;;5051232;28;20036;-81
2022/03/17 02:56:47;;;;;;;1.90;1.75;;;;;;;;;;5035441;28;20024;-81
2022/03/17 02:59:15;;;;;;;1.65;1.55;;;;;;;;;;5048152;28;20086;-80
2022/03/17 03:01:44;;;;;;;3.28;2.40;;;;;;;;;;5047097;28;20397;-81
2022/03/17 03:04:10;;;;;;;3.58;2.42;;;;;;;;;;5051600;28;20091;-81
2022/03/17 03:06:35;;;;;;;3.58;3.28;;;;;;;;;;5050218;28;20117;-81
2022/03/17 03:09:00;;;;;;;1.65;1.55;;;;;;;;;;5051260;28;20135;-83
2022/03/17 03:11:26;;;;;;;3.55;3.20;;;;;;;;;;5048688;28;20033;-81
2022/03/17 03:14:00;;;;;;;2.60;1.98;;;;;;;;;;5046641;28;20087;-78
2022/03/17 03:16:26;;;;;;;4.43;2.80;;;;;;;;;;5066543;28;20055;-82
2022/03/17 03:18:53;;;;;;;1.65;1.55;;;;;;;;;;5051499;28;20090;-80
2022/03/17 03:21:21;;;;;;;3.15;2.75;;;;;;;;;;5052090;28;20528;-80
2022/03/17 03:23:46;;;;;;;2.17;1.98;;;;;;;;;;5051151;28;20453;-81
2022/03/17 03:26:12;;;;;;;3.53;3.22;;;;;;;;;;5034183;28;20021;-81
2022/03/17 03:28:39;;;;;;;2.42;1.65;;;;;;;;;;5052530;28;20029;-82
2022/03/17 03:31:06;;;;;;;1.52;1.42;;;;;;;;;;5052557;28;20112;-81
2022/03/17 03:33:31;;;;;;;2.75;2.08;;;;;;;;;;5050253;28;20374;-81
2022/03/17 03:38:40;;;;;;;3.20;2.25;;;;;;;;;;5054489;28;20044;-81
2022/03/17 03:41:08;;;;;;;6.00;3.08;;;;;;;;;;5056689;28;20025;-81
2022/03/17 03:43:36;;;;;;;1.73;1.63;;;;;;;;;;5055588;28;20450;-81
2022/03/17 03:46:01;;;;;;;3.08;2.30;;;;;;;;;;5052883;28;20033;-81
2022/03/17 03:48:31;;;;;;;4.10;3.03;;;;;;;;;;5055459;28;20039;-81
2022/03/17 03:50:57;;;;;;;4.25;2.60;;;;;;;;;;5054752;28;20059;-81
2022/03/17 03:53:22;;;;;;;2.15;1.95;;;;;;;;;;5052675;28;20078;-81
2022/03/17 03:55:47;;;;;;;2.15;1.95;;;;;;;;;;5052195;28;20273;-81
2022/03/17 03:58:13;;;;;;;1.95;1.75;;;;;;;;;;5052772;28;20024;-81
2022/03/17 04:00:41;;;;;;;1.65;1.33;;;;;;;;;;5053911;28;20445;-81
2022/03/17 04:03:09;;;;;;;2.85;1.98;;;;;;;;;;5055691;28;20029;-81
2022/03/17 04:05:37;;;;;;;4.85;2.88;;;;;;;;;;5056894;28;20336;-80
2022/03/17 04:08:03;;;;;;;7.45;3.22;;;;;;;;;;5055780;28;20039;-81
2022/03/17 04:10:29;;;;;;;3.15;2.85;;;;;;;;;;5055574;28;20111;-80
2022/03/17 04:12:54;;;;;;;2.45;2.05;;;;;;;;;;5053892;28;20078;-81
2022/03/17 04:15:20;;;;;;;1.67;1.58;;;;;;;;;;5050418;28;20040;-80
2022/03/17 04:17:46;;;;;;;4.85;4.35;;;;;;;;;;5051703;28;20025;-81
2022/03/17 04:20:11;;;;;;;1.58;1.48;;;;;;;;;;5055496;28;20032;-81
2022/03/17 04:22:37;;;;;;;4.65;2.03;;;;;;;;;;5053139;28;20030;-81
2022/03/17 04:25:03;;;;;;;2.83;2.63;;;;;;;;;;5054251;28;20053;-81
2022/03/17 04:27:29;;;;;;;2.65;2.40;;;;;;;;;;5052243;28;20369;-80
2022/03/17 04:29:54;;;;;;;2.58;2.35;;;;;;;;;;5050067;28;20029;-80
2022/03/17 04:32:24;;;;;;;2.20;2.00;;;;;;;;;;5054185;28;20064;-80
2022/03/17 04:34:50;;;;;;;1.90;1.20;;;;;;;;;;5054193;28;20029;-80
2022/03/17 04:37:15;;;;;;;7.32;3.50;;;;;;;;;;5056159;28;20111;-80
2022/03/17 04:39:43;;;;;;;4.43;3.05;;;;;;;;;;5052940;28;20061;-81
2022/03/17 04:42:09;;;;;;;2.05;1.77;;;;;;;;;;5036906;28;20377;-80
2022/03/17 04:44:35;;;;;;;4.78;2.10;;;;;;;;;;5052961;28;20461;-80
2022/03/17 04:47:00;;;;;;;2.13;1.98;;;;;;;;;;5054016;28;20032;-80
2022/03/17 04:49:25;;;;;;;4.03;1.98;;;;;;;;;;5055363;28;20367;-81
2022/03/17 04:51:51;;;;;;;4.35;3.70;;;;;;;;;;5054727;28;20025;-79
2022/03/17 04:54:16;;;;;;;3.60;2.25;;;;;;;;;;5054251;28;20021;-81
2022/03/17 04:56:41;;;;;;;3.70;2.55;;;;;;;;;;5055115;28;20150;-81
2022/03/17 04:59:07;;;;;;;3.15;2.85;;;;;;;;;;5055135;28;20107;-80
2022/03/17 05:01:35;;;;;;;2.30;1.83;;;;;;;;;;5051821;28;20036;-80
2022/03/17 05:04:00;;;;;;;4.53;2.78;;;;;;;;;;5048433;28;21373;-80
2022/03/17 05:06:28;;;;;;;3.83;3.00;;;;;;;;;;5052262;28;20031;-79
2022/03/17 05:08:53;;;;;;;3.45;3.00;;;;;;;;;;5054152;28;20461;-80
2022/03/17 05:11:20;;;;;;;1.27;1.17;;;;;;;;;;5055021;28;20052;-81
2022/03/17 05:13:48;;;;;;;3.08;2.30;;;;;;;;;;5054822;28;20017;-81
2022/03/17 05:16:16;;;;;;;1.88;1.77;;;;;;;;;;5054107;28;20021;-81
2022/03/17 05:18:42;;;;;;;3.47;2.60;;;;;;;;;;5055486;28;20031;-80
2022/03/17 05:21:09;;;;;;;4.40;4.00;;;;;;;;;;5054511;28;20096;-80
2022/03/17 05:23:35;;;;;;;3.78;2.03;;;;;;;;;;5053581;28;20025;-81
2022/03/17 05:26:00;;;;;;;3.08;2.88;;;;;;;;;;5053976;28;20035;-80
2022/03/17 05:28:26;;;;;;;2.95;2.53;;;;;;;;;;5052862;28;20362;-80
2022/03/17 05:30:55;;;;;;;3.72;3.13;;;;;;;;;;5054751;28;20100;-80
2022/03/17 05:33:21;;;;;;;2.25;2.15;;;;;;;;;;5053232;28;20112;-80
2022/03/17 05:35:46;;;;;;;4.72;3.33;;;;;;;;;;5051184;28;20025;-83
2022/03/17 05:38:14;;;;;;;5.10;4.47;;;;;;;;;;5033563;28;20516;-80
2022/03/17 05:40:40;;;;;;;4.65;3.45;;;;;;;;;;5047607;28;20096;-80
2022/03/17 05:43:07;;;;;;;5.95;4.15;;;;;;;;;;5070508;28;20112;-81
2022/03/17 05:45:34;;;;;;;4.65;3.45;;;;;;;;;;5050325;28;20017;-81
2022/03/17 05:48:01;;;;;;;4.45;3.58;;;;;;;;;;5053332;28;20029;-80
2022/03/17 05:50:31;;;;;;;3.53;3.10;;;;;;;;;;5054045;28;20021;-80
2022/03/17 05:52:59;;;;;;;3.50;3.20;;;;;;;;;;5033662;28;20045;-82
2022/03/17 05:55:30;;;;;;;3.80;2.78;;;;;;;;;;5052245;28;20392;-82
2022/03/17 05:57:58;;;;;;;4.35;3.80;;;;;;;;;;5053158;28;20032;-80
2022/03/17 06:00:27;;;;;;;3.53;3.22;;;;;;;;;;5050952;28;20506;-80
2022/03/17 06:02:57;;;;;;;2.13;1.92;;;;;;;;;;5052664;28;20338;-81
2022/03/17 06:05:23;;;;;;;4.43;4.13;;;;;;;;;;5053958;28;20025;-81
2022/03/17 06:07:53;;;;;;;5.97;4.53;;;;;;;;;;5033168;28;20371;-82
2022/03/17 06:10:23;;;;;;;3.63;3.33;;;;;;;;;;5051855;28;20366;-81
2022/03/17 06:12:52;;;;;;;3.47;3.17;;;;;;;;;;5052566;28;20029;-80
2022/03/17 06:15:19;;;;;;;5.65;5.00;;;;;;;;;;5051523;28;20116;-80
2022/03/17 06:17:48;;;;;;;3.88;3.22;;;;;;;;;;5053824;28;20028;-79
2022/03/17 06:20:16;;;;;;;4.80;4.40;;;;;;;;;;5051145;28;20051;-80
2022/03/17 06:22:43;;;;;;;6.38;3.72;;;;;;;;;;5062580;28;20047;-79
2022/03/17 06:25:10;;;;;;;3.80;2.78;;;;;;;;;;5053037;28;20031;-80
2022/03/17 06:27:41;;;;;;;5.82;5.22;;;;;;;;;;5053013;28;20394;-78
2022/03/17 06:30:10;;;;;;;2.58;2.38;;;;;;;;;;5052716;28;20029;-79
2022/03/17 06:32:39;;;;;;;4.93;4.47;;;;;;;;;;5052939;28;20389;-81
2022/03/17 06:35:09;;;;;;;3.60;3.17;;;;;;;;;;5054615;28;20033;-80
2022/03/17 06:37:35;;;;;;;2.97;2.78;;;;;;;;;;5051371;28;20471;-80
2022/03/17 06:40:01;;;;;;;3.50;3.17;;;;;;;;;;5053175;28;20040;-78
2022/03/17 06:42:27;;;;;;;7.80;5.88;;;;;;;;;;5050087;28;20361;-80
2022/03/17 06:44:52;;;;;;;5.65;5.07;;;;;;;;;;5048075;28;20422;-80
2022/03/17 06:47:18;;;;;;;6.97;3.88;;;;;;;;;;5053464;28;20131;-80
2022/03/17 06:49:43;;;;;;;5.60;3.63;;;;;;;;;;5053179;28;20511;-79
2022/03/17 06:52:08;;;;;;;4.13;3.20;;;;;;;;;;5053232;28;20335;-79
2022/03/17 06:54:34;;;;;;;4.47;3.63;;;;;;;;;;5050554;28;20017;-80
2022/03/17 06:57:01;;;;;;;2.72;2.33;;;;;;;;;;5052260;28;20115;-80
2022/03/17 06:59:27;;;;;;;2.35;2.17;;;;;;;;;;5051934;28;20021;-80
2022/03/17 07:01:54;;;;;;;3.78;3.47;;;;;;;;;;5050699;28;20033;-80
2022/03/17 07:04:22;;;;;;;2.90;1.65;;;;;;;;;;5053158;28;20036;-77
2022/03/17 07:06:47;;;;;;;2.42;2.10;;;;;;;;;;5052393;28;20029;-79
2022/03/17 07:09:13;;;;;;;2.45;2.25;;;;;;;;;;5056230;28;20029;-80
2022/03/17 07:11:39;;;;;;;2.42;2.22;;;;;;;;;;5055265;28;20421;-80
2022/03/17 07:14:06;;;;;;;1.50;1.40;;;;;;;;;;5055314;28;20373;-79
2022/03/17 07:16:32;;;;;;;2.75;1.88;;;;;;;;;;5054359;28;20024;-80
2022/03/17 07:18:59;;;;;;;1.95;1.55;;;;;;;;;;5038533;28;20036;-80
2022/03/17 07:21:25;;;;;;;0.88;0.85;;;;;;;;;;5054333;28;20076;-80
2022/03/17 07:23:50;;;;;;;1.80;1.70;;;;;;;;;;5055589;28;20021;-79
2022/03/17 07:26:15;;;;;;;0.98;0.98;;;;;;;;;;5053909;28;20035;-78
2022/03/17 07:28:41;;;;;;;1.33;1.23;;;;;;;;;;5057232;28;20040;-80
2022/03/17 07:31:06;;;;;;;1.13;1.13;;;;;;;;;;5049755;28;20017;-79
2022/03/17 07:33:34;;;;;;;2.75;2.53;;;;;;;;;;5054235;28;20037;-77
2022/03/17 07:36:07;;;;;;;1.85;1.48;;;;;;;;;;5055532;28;20063;-80
2022/03/17 07:38:32;;;;;;;1.00;1.00;;;;;;;;;;5052297;28;20090;-78
2022/03/17 07:40:57;;;;;;;1.67;1.58;;;;;;;;;;5055545;28;20037;-79
2022/03/17 07:43:23;;;;;;;0.68;0.68;;;;;;;;;;5052982;28;20025;-80
2022/03/17 07:45:49;;;;;;;3.17;1.92;;;;;;;;;;5053768;28;20039;-80
2022/03/17 07:48:17;;;;;;;1.50;1.40;;;;;;;;;;5052879;28;20044;-80
2022/03/17 07:50:47;;;;;;;3.25;1.50;;;;;;;;;;5051796;28;20036;-80
2022/03/17 07:53:12;;;;;;;2.22;2.03;;;;;;;;;;5056038;28;20120;-80
2022/03/17 07:55:38;;;;;;;0.80;0.80;;;;;;;;;;5054499;28;20461;-79
2022/03/17 07:58:06;;;;;;;1.75;1.65;;;;;;;;;;5055316;28;20064;-80
2022/03/17 08:00:34;;;;;;;1.95;1.65;;;;;;;;;;5049020;28;20053;-81
2022/03/17 08:03:01;;;;;;;1.10;0.75;;;;;;;;;;5052555;28;20374;-80
2022/03/17 08:05:29;;;;;;;0.38;0.38;;;;;;;;;;5056260;28;20048;-79
2022/03/17 08:07:54;;;;;;;1.27;1.23;;;;;;;;;;5055797;28;20025;-80
2022/03/17 08:10:22;;;;;;;1.20;0.85;;;;;;;;;;5052697;28;20036;-79
2022/03/17 08:12:52;;;;;;;0.75;0.75;;;;;;;;;;5053602;28;20373;-79
2022/03/17 08:15:22;;;;;;;1.25;1.13;;;;;;;;;;5055331;28;20108;-80
2022/03/17 08:17:48;;;;;;;1.25;1.15;;;;;;;;;;5055966;28;20324;-79
2022/03/17 08:20:13;;;;;;;5.07;1.50;;;;;;;;;;5055118;28;20039;-78
2022/03/17 08:22:40;;;;;;;2.13;1.50;;;;;;;;;;5055972;28;20033;-79
2022/03/17 08:25:08;;;;;;;0.50;0.50;;;;;;;;;;5051941;28;20370;-79
2022/03/17 08:27:36;;;;;;;1.30;1.23;;;;;;;;;;5055295;28;20353;-79
2022/03/17 08:30:03;;;;;;;1.42;1.33;;;;;;;;;;5055240;28;20025;-80
2022/03/17 08:32:28;;;;;;;0.68;0.68;;;;;;;;;;5047808;28;20180;-79
2022/03/17 08:34:54;;;;;;;3.15;2.20;;;;;;;;;;5057805;28;20039;-79
2022/03/17 08:37:19;;;;;;;1.10;0.90;;;;;;;;;;5059728;28;20032;-80
2022/03/17 08:39:44;;;;;;;1.10;1.05;;;;;;;;;;5053673;28;20028;-80
2022/03/17 08:42:12;;;;;;;1.20;0.73;;;;;;;;;;5054050;28;20095;-80
2022/03/17 08:44:37;;;;;;;0.00;0.00;;;;;;;;;;5055276;28;20035;-79
2022/03/17 08:49:47;;;;;;;0.70;0.70;;;;;;;;;;5055242;28;20415;-79
2022/03/17 08:52:12;;;;;;;0.38;0.38;;;;;;;;;;5053733;28;20111;-80
2022/03/17 08:54:38;;;;;;;0.70;0.68;;;;;;;;;;5055898;28;20025;-79
2022/03/17 08:57:04;;;;;;;0.10;0.10;;;;;;;;;;5055700;28;20021;-80
2022/03/17 08:59:34;;;;;;;0.00;0.00;;;;;;;;;;5053779;28;20032;-79
2022/03/17 09:02:01;;;;;;;0.00;0.00;;;;;;;;;;5054011;28;20033;-80
2022/03/17 09:04:28;;;;;;;0.20;0.20;;;;;;;;;;5051064;28;20031;-79
2022/03/17 09:07:02;;;;;;;0.43;0.43;;;;;;;;;;5056507;28;20029;-79
2022/03/17 09:09:34;;;;;;;0.65;0.55;;;;;;;;;;5055705;28;20025;-79
2022/03/17 09:12:05;;;;;;;;;;;;;;;;;;5054426;28;20044;-78
2022/03/17 09:14:31;;;;;;;0.47;0.47;;;;;;;;;;5055371;28;19923;-79
2022/03/17 09:16:58;;;;;;;0.88;0.77;;;;;;;;;;5054913;28;20033;-79
2022/03/17 09:19:24;;;;;;;0.25;0.20;;;;;;;;;;5037875;28;20033;-81
2022/03/17 09:21:49;;;;;;;0.40;0.40;;;;;;;;;;5055724;28;20029;-79
2022/03/17 09:24:14;;;;;;;0.40;0.40;;;;;;;;;;5054538;28;20048;-81
2022/03/17 09:26:40;;;;;;;1.70;1.40;;;;;;;;;;5052372;28;20327;-80
2022/03/17 09:29:05;;;;;;;0.25;0.25;;;;;;;;;;5037964;28;20336;-80
2022/03/17 09:31:33;;;;;;;0.75;0.35;;;;;;;;;;5049769;28;20446;-80
2022/03/17 09:34:02;;;;;;;0.00;0.00;;;;;;;;;;5048150;28;20035;-80
2022/03/17 09:36:28;;;;;;;0.10;0.10;;;;;;;;;;5058885;28;20092;-81
2022/03/17 09:41:43;;;;;;;0.30;0.30;;;;;;;;;;5050266;28;20102;-81
2022/03/17 09:44:09;;;;;;;0.52;0.30;;;;;;;;;;5048080;28;20036;-80
2022/03/17 09:47:12;;;;;;;0.52;0.52;;;;;;;;;;5029022;28;20032;-80
2022/03/17 09:49:42;;;;;;;0.40;0.40;;;;;;;;;;5030826;28;20028;-80
2022/03/17 09:52:47;;;;;;;0.52;0.52;;;;;;;;;;5030623;28;20120;-81
2022/03/17 09:55:13;;;;;;;0.30;0.30;;;;;;;;;;4985403;28;20060;-83
2022/03/17 09:57:43;;;;;;;0.47;0.47;;;;;;;;;;4996005;28;20475;-78
2022/03/17 10:00:12;;;;;;;0.20;0.20;;;;;;;;;;4992305;28;20033;-79
2022/03/17 10:02:41;;;;;;;0.93;0.93;;;;;;;;;;4996373;28;20124;-78
2022/03/17 10:05:11;;;;;;;0.25;0.13;;;;;;;;;;5017227;28;20400;-79
2022/03/17 10:07:37;;;;;;;1.08;0.43;;;;;;;;;;4998641;28;20129;-79
2022/03/17 10:10:03;;;;;;;0.32;0.20;;;;;;;;;;4996746;28;20040;-79
2022/03/17 10:12:30;;;;;;;0.65;0.60;;;;;;;;;;4996634;28;20129;-79
2022/03/17 10:14:56;;;;;;;0.30;0.30;;;;;;;;;;4977314;28;20146;-80
2022/03/17 10:17:42;;;;;;;0.52;0.38;;;;;;;;;;4994587;28;20105;-78
2022/03/17 10:20:16;;;;;;;0.25;0.25;;;;;;;;;;5010443;28;20301;-78
2022/03/17 10:22:47;;;;;;;0.00;0.00;;;;;;;;;;5010464;28;20034;-78
2022/03/17 10:25:24;;;;;;;0.90;0.90;;;;;;;;;;5014352;28;20041;-79
2022/03/17 10:27:50;;;;;;;0.98;0.93;;;;;;;;;;5054422;28;20052;-80
2022/03/17 10:30:35;;;;;;;0.40;0.40;;;;;;;;;;5053724;28;20170;-79
2022/03/17 10:33:04;;;;;;;0.55;0.55;;;;;;;;;;5057449;28;20523;-80
2022/03/17 10:35:34;;;;;;;0.10;0.10;;;;;;;;;;5054374;28;20041;-80
2022/03/17 10:38:12;;;;;;;0.30;0.30;;;;;;;;;;5050932;28;20029;-81
2022/03/17 10:40:41;;;;;;;0.00;0.00;;;;;;;;;;5050785;28;20111;-83
2022/03/17 10:43:19;;;;;;;0.15;0.15;;;;;;;;;;5056587;28;20033;-79
2022/03/17 10:45:45;;;;;;;1.45;0.55;;;;;;;;;;5050512;28;20017;-81
2022/03/17 10:48:13;;;;;;;0.10;0.10;;;;;;;;;;5052987;28;20044;-80
2022/03/17 10:50:41;;;;;;;0.00;0.00;;;;;;;;;;5052288;28;20029;-80
2022/03/17 10:53:07;;;;;;;0.98;0.68;;;;;;;;;;5046686;28;20367;-81
2022/03/17 10:55:36;;;;;;;0.05;0.05;;;;;;;;;;5051334;28;20438;-80
2022/03/17 10:58:16;;;;;;;0.28;0.25;;;;;;;;;;5052508;28;20033;-79
2022/03/17 11:00:52;;;;;;;0.20;0.20;;;;;;;;;;5050585;28;20033;-81
2022/03/17 11:03:20;;;;;;;0.00;0.00;;;;;;;;;;5055636;28;20025;-81
2022/03/17 11:05:45;;;;;;;0.47;0.47;;;;;;;;;;5054180;28;20104;-79
2022/03/17 11:08:11;;;;;;;0.20;0.20;;;;;;;;;;5052922;28;20583;-78
2022/03/17 11:10:39;;;;;;;0.00;0.00;;;;;;;;;;5048375;28;20036;-79
2022/03/17 11:13:09;;;;;;;0.68;0.68;;;;;;;;;;5053741;28;20426;-81
2022/03/17 11:15:38;;;;;;;0.40;0.40;;;;;;;;;;5050034;28;20033;-79
2022/03/17 11:18:12;;;;;;;3.15;0.80;;;;;;;;;;5050049;28;20044;-80
2022/03/17 11:20:40;;;;;;;0.00;0.00;;;;;;;;;;5045509;28;20021;-79
2022/03/17 11:23:15;;;;;;;2.45;0.70;;;;;;;;;;5048238;28;20033;-80
2022/03/17 11:25:45;;;;;;;0.08;0.08;;;;;;;;;;5050938;28;20065;-80
2022/03/17 11:28:11;;;;;;;0.00;0.00;;;;;;;;;;5051276;28;20087;-80
2022/03/17 11:30:52;;;;;;;0.15;0.15;;;;;;;;;;5050509;28;20457;-79
2022/03/17 11:33:22;;;;;;;0.00;0.00;;;;;;;;;;5051539;28;20106;-80
2022/03/17 11:36:15;;;;;;;1.88;0.52;;;;;;;;;;5045710;28;20021;-78
2022/03/17 11:38:43;;;;;;;;;;;;;;;;;;5035657;28;20028;-79
2022/03/17 11:41:26;;;;;;;0.00;0.00;;;;;;;;;;5049118;28;19917;-79
2022/03/17 11:43:52;;;;;;;2.80;0.57;;;;;;;;;;5052575;28;20044;-79
2022/03/17 11:46:19;;;;;;;0.35;0.35;;;;;;;;;;5051439;28;20334;-79
2022/03/17 11:48:58;;;;;;;0.00;0.00;;;;;;;;;;5035184;28;20029;-79
2022/03/17 11:51:25;;;;;;;0.28;0.28;;;;;;;;;;5050608;28;20033;-78
2022/03/17 11:53:53;;;;;;;0.00;0.00;;;;;;;;;;5051520;28;20047;-79
2022/03/17 11:56:37;;;;;;;0.45;0.43;;;;;;;;;;5055834;28;20029;-79
2022/03/17 11:59:07;;;;;;;0.00;0.00;;;;;;;;;;5055875;28;20055;-79
2022/03/17 12:01:34;;;;;;;0.40;0.35;;;;;;;;;;5055823;28;20583;-79
2022/03/17 12:04:04;;;;;;;0.38;0.32;;;;;;;;;;5054647;28;20039;-79
2022/03/17 12:06:34;;;;;;;0.10;0.10;;;;;;;;;;5057753;28;20112;-79
2022/03/17 12:09:02;;;;;;;0.32;0.32;;;;;;;;;;5055129;28;20434;-79
2022/03/17 12:11:33;;;;;;;0.08;0.08;;;;;;;;;;5054960;28;20434;-78
2022/03/17 12:17:02;;;;;;;0.60;0.60;;;;;;;;;;5056899;28;20099;-80
2022/03/17 12:19:38;;;;;;;0.60;0.52;;;;;;;;;;5059339;28;20056;-80
2022/03/17 12:22:08;;;;;;;1.48;0.77;;;;;;;;;;5056244;28;20446;-80
2022/03/17 12:24:34;;;;;;;0.10;0.10;;;;;;;;;;5050231;28;20421;-80
2022/03/17 12:27:09;;;;;;;0.52;0.38;;;;;;;;;;5056029;28;20136;-79
2022/03/17 12:29:37;;;;;;;0.63;0.45;;;;;;;;;;5055944;28;20029;-80
2022/03/17 12:32:14;;;;;;;1.33;0.35;;;;;;;;;;5056111;28;20017;-79
2022/03/17 12:34:43;;;;;;;0.00;0.00;;;;;;;;;;5053175;28;20729;-80
2022/03/17 12:37:11;;;;;;;0.52;0.40;;;;;;;;;;5056073;28;20067;-79
2022/03/17 12:39:40;;;;;;;4.63;0.20;;;;;;;;;;5056004;28;20029;-79
2022/03/17 12:42:17;;;;;;;0.25;0.25;;;;;;;;;;5055960;28;20064;-80
2022/03/17 12:44:59;;;;;;;0.40;0.40;;;;;;;;;;5055028;28;20442;-80
2022/03/17 12:47:29;;;;;;;0.00;0.00;;;;;;;;;;5057362;28;20458;-81
2022/03/17 12:49:55;;;;;;;2.30;0.80;;;;;;;;;;5037316;28;20060;-79
2022/03/17 12:52:25;;;;;;;0.30;0.30;;;;;;;;;;5034165;28;20029;-80
2022/03/17 12:55:04;;;;;;;0.00;0.00;;;;;;;;;;5050087;28;20457;-80
2022/03/17 12:57:34;;;;;;;0.20;0.20;;;;;;;;;;5055239;28;20086;-79
2022/03/17 13:00:00;;;;;;;0.20;0.20;;;;;;;;;;5053748;28;20039;-80
2022/03/17 13:02:26;;;;;;;4.53;1.00;;;;;;;;;;5053863;28;20029;-80
2022/03/17 13:04:56;;;;;;;0.88;0.47;;;;;;;;;;5055451;28;20469;-80
2022/03/17 13:07:27;;;;;;;0.10;0.10;;;;;;;;;;5037238;28;20052;-82
2022/03/17 13:10:11;;;;;;;0.30;0.30;;;;;;;;;;5051964;28;20061;-81
2022/03/17 13:15:23;;;;;;;1.92;1.42;;;;;;;;;;5049210;28;20040;-79
2022/03/17 13:18:10;;;;;;;0.28;0.28;;;;;;;;;;5050638;28;20029;-79
2022/03/17 13:20:35;;;;;;;0.30;0.30;;;;;;;;;;5046214;28;20405;-78
2022/03/17 13:25:57;;;;;;;0.50;0.50;;;;;;;;;;5033896;28;20041;-79
2022/03/17 13:28:35;;;;;;;1.40;1.30;;;;;;;;;;5050043;28;20091;-79
2022/03/17 13:31:03;;;;;;;0.03;0.03;;;;;;;;;;5051981;28;20021;-79
2022/03/17 13:33:33;;;;;;;0.00;0.00;;;;;;;;;;5044193;28;20464;-79
2022/03/17 13:35:59;;;;;;;0.00;0.00;;;;;;;;;;5051688;28;20032;-79
2022/03/17 13:38:35;;;;;;;9.80;0.95;;;;;;;;;;5033457;28;20051;-81
2022/03/17 13:41:04;;;;;;;0.20;0.20;;;;;;;;;;5033036;28;20143;-78
2022/03/17 13:43:32;;;;;;;1.75;1.05;;;;;;;;;;5044785;28;20043;-78
2022/03/17 13:45:59;;;;;;;0.15;0.15;;;;;;;;;;5050073;28;20021;-79
2022/03/17 13:48:29;;;;;;;0.47;0.40;;;;;;;;;;5066596;28;20021;-80
2022/03/17 13:50:55;;;;;;;0.30;0.30;;;;;;;;;;5050032;28;20438;-78
2022/03/17 13:53:39;;;;;;;0.30;0.30;;;;;;;;;;5046788;28;20102;-80
2022/03/17 13:56:05;;;;;;;0.25;0.22;;;;;;;;;;5047069;28;20026;-80
2022/03/17 13:58:37;;;;;;;0.63;0.63;;;;;;;;;;5049118;28;20036;-79
2022/03/17 14:01:21;;;;;;;0.32;0.05;;;;;;;;;;5045834;28;20363;-79
2022/03/17 14:03:50;;;;;;;0.20;0.20;;;;;;;;;;5046642;28;20043;-79
2022/03/17 14:06:35;;;;;;;0.98;0.85;;;;;;;;;;5046677;28;20084;-80
2022/03/17 14:09:12;;;;;;;1.15;0.57;;;;;;;;;;5050837;28;20049;-79
2022/03/17 14:11:37;;;;;;;10.73;1.10;;;;;;;;;;5041008;28;20387;-78
2022/03/17 14:14:08;;;;;;;0.00;0.00;;;;;;;;;;5049799;28;20108;-79
2022/03/17 14:16:35;;;;;;;1.25;0.47;;;;;;;;;;5049756;28;20113;-79
2022/03/17 14:19:04;;;;;;;1.20;0.65;;;;;;;;;;5051101;28;20036;-81
2022/03/17 14:21:31;;;;;;;0.43;0.43;;;;;;;;;;5048871;28;20122;-79
2022/03/17 14:24:13;;;;;;;1.75;0.30;;;;;;;;;;5043622;28;20470;-79
2022/03/17 14:26:38;;;;;;;1.85;0.95;;;;;;;;;;5043792;28;20340;-79
2022/03/17 14:29:25;;;;;;;0.40;0.13;;;;;;;;;;5027454;28;20171;-79
2022/03/17 14:32:02;;;;;;;0.05;0.05;;;;;;;;;;5010599;28;20033;-79
2022/03/17 14:34:27;;;;;;;0.00;0.00;;;;;;;;;;5047423;28;20028;-79
2022/03/17 14:37:08;;;;;;;0.00;0.00;;;;;;;;;;5048217;28;20036;-80
2022/03/17 14:39:39;;;;;;;0.20;0.20;;;;;;;;;;5049918;28;20032;-80
2022/03/17 14:42:04;;;;;;;0.00;0.00;;;;;;;;;;5046773;28;20021;-79
2022/03/17 14:44:32;;;;;;;0.00;0.00;;;;;;;;;;5045179;28;20086;-78
2022/03/17 14:46:58;;;;;;;0.50;0.50;;;;;;;;;;5044873;28;20022;-81
2022/03/17 14:49:23;;;;;;;0.75;0.75;;;;;;;;;;5047848;28;20040;-80
2022/03/17 14:51:49;;;;;;;0.57;0.55;;;;;;;;;;5049671;28;20029;-79
2022/03/17 14:54:27;;;;;;;0.20;0.20;;;;;;;;;;5051439;28;20545;-80
2022/03/17 14:56:52;;;;;;;0.00;0.00;;;;;;;;;;5048145;28;20360;-79
2022/03/17 14:59:25;;;;;;;0.00;0.00;;;;;;;;;;5048040;28;20104;-79
2022/03/17 15:01:53;;;;;;;0.75;0.75;;;;;;;;;;5041633;28;20473;-79
2022/03/17 15:04:18;;;;;;;2.30;0.63;;;;;;;;;;5040682;28;20359;-79
2022/03/17 15:06:46;;;;;;;0.20;0.20;;;;;;;;;;5040833;28;20032;-81
2022/03/17 15:09:13;;;;;;;0.00;0.00;;;;;;;;;;5048807;28;20024;-79
2022/03/17 15:11:39;;;;;;;0.10;0.10;;;;;;;;;;5049687;28;20028;-78
2022/03/17 15:14:04;;;;;;;0.25;0.22;;;;;;;;;;5048880;28;20033;-80